Time;durP1;ratioP1;P1;durP2;ratioP2;P2;SDS_P1;SDS_P2;PMS_P1;PMS_P2;Temp;Humidity;BMP_temperature;BMP_pressure;BME280_temperature;BME280_humidity;BME280_pressure;Samples;Min_cycle;Max_cycle;Signal;HPM_P1;HPM_P2
2023/05/24 00:02:12;;;;;;;9.83;5.80;;;;;;;;;;4990664;28;20227;-69
2023/05/24 00:04:40;;;;;;;9.30;6.60;;;;;;;;;;4984541;28;20275;-69
2023/05/24 00:07:10;;;;;;;8.23;6.43;;;;;;;;;;4991186;28;20220;-69
2023/05/24 00:09:38;;;;;;;7.90;6.27;;;;;;;;;;4992622;28;20188;-69
2023/05/24 00:12:04;;;;;;;7.77;6.20;;;;;;;;;;5007882;28;20563;-69
2023/05/24 00:14:31;;;;;;;9.57;7.20;;;;;;;;;;5010903;28;20200;-68
2023/05/24 00:16:58;;;;;;;14.23;7.17;;;;;;;;;;5008986;28;20230;-68
2023/05/24 00:19:26;;;;;;;15.07;7.57;;;;;;;;;;4991979;28;20196;-68
2023/05/24 00:21:52;;;;;;;14.47;7.30;;;;;;;;;;5009132;28;20198;-69
2023/05/24 00:24:19;;;;;;;13.23;7.80;;;;;;;;;;5009516;28;20638;-68
2023/05/24 00:26:47;;;;;;;10.17;6.87;;;;;;;;;;5008936;28;20981;-68
2023/05/24 00:29:14;;;;;;;10.07;7.00;;;;;;;;;;4972728;28;20219;-68
2023/05/24 00:31:40;;;;;;;7.97;6.80;;;;;;;;;;5003081;28;20200;-68
2023/05/24 00:34:09;;;;;;;9.50;6.93;;;;;;;;;;5008031;28;20276;-68
2023/05/24 00:36:37;;;;;;;10.37;6.70;;;;;;;;;;4990971;28;20254;-68
2023/05/24 00:39:03;;;;;;;7.73;5.93;;;;;;;;;;5009964;28;20266;-69
2023/05/24 00:41:30;;;;;;;10.10;6.60;;;;;;;;;;5009190;28;20226;-69
2023/05/24 00:43:57;;;;;;;9.03;6.43;;;;;;;;;;5010003;28;20215;-68
2023/05/24 00:46:26;;;;;;;7.73;6.30;;;;;;;;;;4975499;28;20224;-69
2023/05/24 00:48:53;;;;;;;9.03;7.00;;;;;;;;;;4991918;28;20199;-69
2023/05/24 00:51:20;;;;;;;7.97;6.73;;;;;;;;;;4990099;28;20201;-69
2023/05/24 00:53:47;;;;;;;10.87;6.93;;;;;;;;;;4989414;28;20239;-69
2023/05/24 00:56:14;;;;;;;10.97;6.73;;;;;;;;;;4991585;28;20206;-69
2023/05/24 00:58:41;;;;;;;11.67;6.90;;;;;;;;;;5008768;28;20813;-69
2023/05/24 01:01:08;;;;;;;7.60;6.17;;;;;;;;;;4978780;28;20279;-69
2023/05/24 01:03:36;;;;;;;9.00;6.57;;;;;;;;;;4989806;28;20223;-69
2023/05/24 01:06:04;;;;;;;8.30;7.07;;;;;;;;;;4992106;28;20196;-69
2023/05/24 01:08:31;;;;;;;12.90;7.07;;;;;;;;;;5008821;28;20204;-69
2023/05/24 01:11:00;;;;;;;9.33;7.57;;;;;;;;;;4990167;28;20187;-69
2023/05/24 01:13:30;;;;;;;10.20;7.40;;;;;;;;;;4974824;28;20204;-69
2023/05/24 01:16:16;;;;;;;9.53;7.07;;;;;;;;;;5008337;28;20192;-69
2023/05/24 01:18:45;;;;;;;9.50;7.30;;;;;;;;;;4991210;28;20230;-69
2023/05/24 01:21:16;;;;;;;9.80;7.50;;;;;;;;;;5007514;28;20188;-69
2023/05/24 01:24:01;;;;;;;10.77;7.37;;;;;;;;;;4990742;28;20211;-68
2023/05/24 01:26:29;;;;;;;11.70;7.27;;;;;;;;;;5008855;28;20281;-68
2023/05/24 01:28:56;;;;;;;10.17;7.17;;;;;;;;;;4991479;28;20696;-68
2023/05/24 01:31:23;;;;;;;8.27;6.97;;;;;;;;;;4990241;28;20276;-69
2023/05/24 01:33:49;;;;;;;12.30;7.37;;;;;;;;;;4990729;28;20203;-69
2023/05/24 01:36:18;;;;;;;9.40;7.80;;;;;;;;;;4988316;28;20254;-69
2023/05/24 01:38:44;;;;;;;9.57;7.40;;;;;;;;;;5009243;28;20715;-68
2023/05/24 01:41:33;;;;;;;9.03;7.30;;;;;;;;;;4990020;28;20200;-69
2023/05/24 02:15:54;;;;;;;7.70;6.60;;;;;;;;;;4994817;28;20225;-68
2023/05/24 02:18:24;;;;;;;10.07;7.13;;;;;;;;;;4975213;28;20667;-68
2023/05/24 02:20:51;;;;;;;7.33;6.50;;;;;;;;;;4975134;28;20299;-68
2023/05/24 02:23:17;;;;;;;8.17;6.93;;;;;;;;;;4990953;28;20200;-68
2023/05/24 02:25:44;;;;;;;12.70;7.13;;;;;;;;;;4991017;28;20203;-68
2023/05/24 02:28:11;;;;;;;13.67;7.40;;;;;;;;;;5008112;28;20711;-68
2023/05/24 02:30:43;;;;;;;10.27;7.73;;;;;;;;;;5008450;28;20196;-68
2023/05/24 02:33:11;;;;;;;11.73;7.90;;;;;;;;;;5008319;28;20196;-68
2023/05/24 02:35:40;;;;;;;9.90;7.53;;;;;;;;;;4992414;28;20710;-68
2023/05/24 02:38:08;;;;;;;13.20;8.50;;;;;;;;;;5011205;28;20188;-69
2023/05/24 02:40:35;;;;;;;10.80;8.37;;;;;;;;;;5012068;28;20543;-69
2023/05/24 02:43:02;;;;;;;9.20;7.40;;;;;;;;;;5011254;28;20188;-69
2023/05/24 02:45:29;;;;;;;10.70;7.50;;;;;;;;;;4993991;28;20685;-69
2023/05/24 02:47:56;;;;;;;10.70;8.03;;;;;;;;;;4995248;28;20216;-68
2023/05/24 02:50:23;;;;;;;8.23;7.43;;;;;;;;;;4990536;28;20192;-69
2023/05/24 02:52:50;;;;;;;9.57;7.50;;;;;;;;;;4992592;28;20200;-68
2023/05/24 02:55:17;;;;;;;10.37;7.60;;;;;;;;;;4993588;28;20196;-69
2023/05/24 02:57:44;;;;;;;12.63;8.03;;;;;;;;;;5011060;28;20652;-69
2023/05/24 03:00:11;;;;;;;11.27;7.70;;;;;;;;;;4984967;28;20749;-69
2023/05/24 03:02:39;;;;;;;8.57;7.67;;;;;;;;;;4983404;28;20207;-68
2023/05/24 03:05:06;;;;;;;13.00;8.00;;;;;;;;;;5008524;28;20270;-68
2023/05/24 03:07:33;;;;;;;9.07;7.90;;;;;;;;;;4973279;28;20227;-68
2023/05/24 03:10:00;;;;;;;9.23;7.70;;;;;;;;;;4992437;28;20184;-68
2023/05/24 03:12:27;;;;;;;10.67;8.10;;;;;;;;;;4993632;28;20578;-68
2023/05/24 03:14:54;;;;;;;15.17;7.77;;;;;;;;;;4993974;28;20223;-68
2023/05/24 03:17:21;;;;;;;11.73;8.20;;;;;;;;;;4992332;28;20237;-68
2023/05/24 03:19:48;;;;;;;11.80;7.53;;;;;;;;;;4978190;28;20234;-68
2023/05/24 03:22:15;;;;;;;8.50;7.40;;;;;;;;;;4993616;28;20737;-68
2023/05/24 03:24:41;;;;;;;8.70;7.53;;;;;;;;;;5010612;28;20192;-69
2023/05/24 03:27:10;;;;;;;9.33;7.20;;;;;;;;;;4990480;28;20295;-69
2023/05/24 03:29:37;;;;;;;9.53;7.07;;;;;;;;;;4992324;28;21001;-69
2023/05/24 03:32:04;;;;;;;9.23;7.23;;;;;;;;;;5011892;28;20667;-68
2023/05/24 03:34:31;;;;;;;9.20;7.17;;;;;;;;;;4993653;28;20196;-68
2023/05/24 03:36:58;;;;;;;8.10;6.90;;;;;;;;;;4992602;28;20223;-69
2023/05/24 03:39:26;;;;;;;9.27;6.90;;;;;;;;;;5009783;28;20180;-69
2023/05/24 03:42:00;;;;;;;8.40;7.40;;;;;;;;;;4993129;28;20188;-69
2023/05/24 03:44:29;;;;;;;10.20;7.07;;;;;;;;;;4994269;28;20246;-69
2023/05/24 03:46:58;;;;;;;11.27;7.43;;;;;;;;;;5008116;28;20335;-69
2023/05/24 03:49:25;;;;;;;12.47;6.93;;;;;;;;;;5011283;28;20655;-69
2023/05/24 03:51:53;;;;;;;9.27;6.27;;;;;;;;;;4993048;28;20199;-69
2023/05/24 03:54:20;;;;;;;9.57;6.73;;;;;;;;;;4990734;28;20188;-68
2023/05/24 03:56:47;;;;;;;8.13;6.30;;;;;;;;;;5001830;28;20192;-68
2023/05/24 03:59:13;;;;;;;9.27;6.90;;;;;;;;;;5010495;28;20550;-68
2023/05/24 04:01:40;;;;;;;10.13;6.90;;;;;;;;;;4993594;28;20203;-68
2023/05/24 04:04:07;;;;;;;8.40;6.70;;;;;;;;;;4990929;28;20744;-68
2023/05/24 04:06:35;;;;;;;7.37;6.57;;;;;;;;;;4978996;28;20294;-68
2023/05/24 04:09:04;;;;;;;9.63;6.87;;;;;;;;;;4991028;28;20207;-68
2023/05/24 04:11:31;;;;;;;10.40;6.53;;;;;;;;;;4977836;28;20185;-68
2023/05/24 04:13:59;;;;;;;9.67;6.93;;;;;;;;;;4984481;28;20188;-68
2023/05/24 04:16:27;;;;;;;9.87;7.10;;;;;;;;;;4990861;28;20251;-68
2023/05/24 04:18:55;;;;;;;9.17;7.13;;;;;;;;;;4976547;28;20203;-68
2023/05/24 04:21:23;;;;;;;10.37;6.97;;;;;;;;;;4973960;28;20727;-72
2023/05/24 04:23:50;;;;;;;8.40;6.23;;;;;;;;;;4973807;28;20212;-72
2023/05/24 04:26:17;;;;;;;7.67;6.40;;;;;;;;;;5001995;28;20215;-71
2023/05/24 04:28:45;;;;;;;9.20;6.43;;;;;;;;;;4992591;28;20212;-67
2023/05/24 04:31:14;;;;;;;8.70;6.63;;;;;;;;;;4984648;28;20206;-70
2023/05/24 04:33:41;;;;;;;8.30;5.63;;;;;;;;;;4980031;28;20232;-69
2023/05/24 04:36:10;;;;;;;9.87;6.50;;;;;;;;;;4989974;28;20611;-68
2023/05/24 04:38:38;;;;;;;12.53;6.77;;;;;;;;;;4975926;28;21023;-68
2023/05/24 04:41:05;;;;;;;10.13;6.70;;;;;;;;;;4974562;28;20279;-69
2023/05/24 04:43:33;;;;;;;7.97;6.17;;;;;;;;;;5008506;28;20537;-70
2023/05/24 04:45:59;;;;;;;11.93;6.87;;;;;;;;;;4990559;28;20902;-72
2023/05/24 04:48:26;;;;;;;11.87;6.37;;;;;;;;;;4988767;28;20277;-72
2023/05/24 04:50:54;;;;;;;17.00;7.10;;;;;;;;;;4996504;28;20216;-69
2023/05/24 04:53:22;;;;;;;13.33;6.43;;;;;;;;;;4984381;28;20195;-69
2023/05/24 04:55:48;;;;;;;9.20;6.67;;;;;;;;;;4988951;28;20196;-68
2023/05/24 04:58:15;;;;;;;10.07;6.33;;;;;;;;;;5000954;28;20768;-68
2023/05/24 05:00:42;;;;;;;11.33;6.87;;;;;;;;;;5008463;28;20254;-68
2023/05/24 05:03:09;;;;;;;10.77;6.33;;;;;;;;;;5007030;28;20192;-69
2023/05/24 05:05:37;;;;;;;9.03;6.57;;;;;;;;;;4965592;28;20200;-69
2023/05/24 05:08:05;;;;;;;12.20;6.13;;;;;;;;;;4990933;28;20599;-68
2023/05/24 05:10:31;;;;;;;12.00;6.90;;;;;;;;;;4980565;28;20203;-70
2023/05/24 05:12:58;;;;;;;10.80;6.33;;;;;;;;;;5002047;28;20254;-71
2023/05/24 05:15:25;;;;;;;10.27;6.33;;;;;;;;;;5002233;28;20213;-71
2023/05/24 05:17:54;;;;;;;13.23;6.23;;;;;;;;;;5005150;28;20322;-72
2023/05/24 05:20:23;;;;;;;10.37;6.53;;;;;;;;;;4990504;28;20270;-68
2023/05/24 05:22:49;;;;;;;9.87;6.20;;;;;;;;;;4990943;28;20188;-68
2023/05/24 05:25:16;;;;;;;13.07;6.63;;;;;;;;;;4991053;28;20196;-68
2023/05/24 05:27:45;;;;;;;17.30;7.17;;;;;;;;;;5009734;28;20278;-68
2023/05/24 05:30:11;;;;;;;15.80;6.47;;;;;;;;;;5001753;28;20201;-68
2023/05/24 05:32:38;;;;;;;12.87;6.23;;;;;;;;;;4988224;28;20188;-68
2023/05/24 05:35:07;;;;;;;15.07;6.53;;;;;;;;;;4996482;28;20278;-68
2023/05/24 05:37:33;;;;;;;18.50;6.87;;;;;;;;;;4992024;28;20663;-68
2023/05/24 05:40:00;;;;;;;16.67;6.40;;;;;;;;;;5009588;28;20702;-67
2023/05/24 05:42:27;;;;;;;11.63;6.80;;;;;;;;;;5008399;28;20188;-68
2023/05/24 05:44:53;;;;;;;9.03;5.73;;;;;;;;;;5008546;28;20196;-68
2023/05/24 05:47:20;;;;;;;15.87;6.40;;;;;;;;;;5006460;28;20278;-68
2023/05/24 05:49:46;;;;;;;12.10;6.60;;;;;;;;;;5006585;28;20533;-67
2023/05/24 05:52:13;;;;;;;18.13;7.33;;;;;;;;;;5000398;28;20709;-68
2023/05/24 05:54:40;;;;;;;14.10;6.77;;;;;;;;;;5009344;28;20274;-67
2023/05/24 05:57:09;;;;;;;17.33;6.93;;;;;;;;;;5008356;28;20197;-68
2023/05/24 05:59:37;;;;;;;22.17;7.73;;;;;;;;;;5008164;28;20184;-68
2023/05/24 06:02:05;;;;;;;10.40;6.60;;;;;;;;;;5005990;28;20271;-69
2023/05/24 06:04:32;;;;;;;8.27;6.23;;;;;;;;;;5005193;28;20220;-68
2023/05/24 06:06:59;;;;;;;8.33;5.97;;;;;;;;;;5001079;28;20725;-69
2023/05/24 06:09:27;;;;;;;9.57;5.53;;;;;;;;;;5008010;28;20200;-68
2023/05/24 06:11:54;;;;;;;8.27;5.80;;;;;;;;;;4969090;28;20189;-70
2023/05/24 06:14:24;;;;;;;9.30;6.03;;;;;;;;;;5002834;28;20734;-70
2023/05/24 06:16:53;;;;;;;8.20;5.53;;;;;;;;;;4998490;28;20304;-70
2023/05/24 06:19:26;;;;;;;10.43;5.50;;;;;;;;;;4973385;28;20206;-72
2023/05/24 06:21:53;;;;;;;7.00;5.53;;;;;;;;;;4973344;28;20606;-72
2023/05/24 06:24:20;;;;;;;7.83;5.30;;;;;;;;;;4991413;28;20264;-71
2023/05/24 06:26:50;;;;;;;12.60;5.20;;;;;;;;;;5007436;28;20188;-65
2023/05/24 06:29:20;;;;;;;9.23;4.93;;;;;;;;;;5008789;28;20990;-61
2023/05/24 06:31:47;;;;;;;9.17;4.67;;;;;;;;;;5006662;28;20199;-61
2023/05/24 06:34:22;;;;;;;11.13;5.50;;;;;;;;;;5008517;28;20623;-60
2023/05/24 06:36:50;;;;;;;10.40;4.93;;;;;;;;;;5006487;28;20546;-61
2023/05/24 06:39:17;;;;;;;8.60;4.90;;;;;;;;;;5008754;28;21007;-60
2023/05/24 06:41:45;;;;;;;8.20;4.87;;;;;;;;;;5008801;28;20226;-63
2023/05/24 06:44:12;;;;;;;9.93;5.20;;;;;;;;;;5006330;28;20295;-62
2023/05/24 06:46:41;;;;;;;6.00;4.53;;;;;;;;;;5007345;28;20636;-69
2023/05/24 06:49:08;;;;;;;6.77;4.63;;;;;;;;;;4990390;28;20624;-71
2023/05/24 06:51:36;;;;;;;8.37;5.53;;;;;;;;;;5008727;28;20200;-71
2023/05/24 06:54:04;;;;;;;8.30;4.87;;;;;;;;;;4991598;28;20188;-71
2023/05/24 06:56:31;;;;;;;6.90;4.97;;;;;;;;;;5008718;28;20204;-71
2023/05/24 06:58:58;;;;;;;9.67;4.77;;;;;;;;;;5008686;28;20185;-72
2023/05/24 07:01:26;;;;;;;9.37;5.30;;;;;;;;;;5008759;28;20630;-72
2023/05/24 07:03:53;;;;;;;8.77;5.07;;;;;;;;;;4991517;28;20188;-72
2023/05/24 07:06:20;;;;;;;9.57;4.83;;;;;;;;;;4991192;28;20227;-72
2023/05/24 07:08:48;;;;;;;7.03;5.10;;;;;;;;;;4991794;28;20250;-72
2023/05/24 07:11:15;;;;;;;7.63;4.23;;;;;;;;;;5008569;28;20204;-72
2023/05/24 07:13:42;;;;;;;8.77;4.43;;;;;;;;;;5008507;28;20603;-72
2023/05/24 07:16:10;;;;;;;7.57;4.43;;;;;;;;;;5000129;28;20283;-72
2023/05/24 07:18:40;;;;;;;6.23;4.13;;;;;;;;;;4991549;28;20207;-72
2023/05/24 07:21:08;;;;;;;11.17;4.90;;;;;;;;;;5008776;28;20223;-72
2023/05/24 07:23:36;;;;;;;11.17;4.57;;;;;;;;;;5012503;28;20202;-72
2023/05/24 07:26:03;;;;;;;9.63;4.80;;;;;;;;;;5012291;28;20215;-72
2023/05/24 07:28:31;;;;;;;9.07;4.50;;;;;;;;;;4978589;28;20223;-72
2023/05/24 07:30:58;;;;;;;5.10;4.00;;;;;;;;;;4994243;28;20202;-72
2023/05/24 07:33:25;;;;;;;5.23;4.00;;;;;;;;;;5011880;28;20615;-72
2023/05/24 07:35:53;;;;;;;5.57;4.03;;;;;;;;;;5012168;28;20283;-72
2023/05/24 07:38:20;;;;;;;8.70;4.20;;;;;;;;;;4994271;28;20666;-72
2023/05/24 07:40:47;;;;;;;8.07;4.47;;;;;;;;;;4994044;28;20185;-72
2023/05/24 07:43:14;;;;;;;9.23;4.60;;;;;;;;;;5011540;28;20196;-72
2023/05/24 07:45:41;;;;;;;10.53;4.40;;;;;;;;;;5012041;28;20626;-72
2023/05/24 07:48:08;;;;;;;6.43;4.20;;;;;;;;;;4993793;28;20208;-72
2023/05/24 07:50:35;;;;;;;7.17;3.83;;;;;;;;;;5011977;28;20200;-72
2023/05/24 07:53:01;;;;;;;7.50;4.23;;;;;;;;;;4993987;28;20223;-72
2023/05/24 07:55:28;;;;;;;9.93;4.37;;;;;;;;;;5011266;28;20196;-72
2023/05/24 07:57:55;;;;;;;7.37;3.50;;;;;;;;;;4994651;28;20214;-72
2023/05/24 08:00:22;;;;;;;8.37;4.10;;;;;;;;;;5015203;28;20192;-72
2023/05/24 08:02:49;;;;;;;7.43;3.37;;;;;;;;;;5015279;28;20547;-72
2023/05/24 08:05:16;;;;;;;9.77;3.83;;;;;;;;;;4997826;28;20192;-71
2023/05/24 08:07:44;;;;;;;13.03;4.73;;;;;;;;;;4981783;28;20203;-72
2023/05/24 08:10:13;;;;;;;7.00;3.77;;;;;;;;;;5011884;28;20202;-71
2023/05/24 08:12:40;;;;;;;6.57;3.57;;;;;;;;;;5012163;28;20390;-71
2023/05/24 08:15:07;;;;;;;7.40;3.67;;;;;;;;;;4994406;28;20192;-71
2023/05/24 08:17:34;;;;;;;13.43;4.20;;;;;;;;;;4977957;28;20318;-71
2023/05/24 08:20:05;;;;;;;5.17;3.37;;;;;;;;;;4994649;28;20199;-71
2023/05/24 08:22:32;;;;;;;5.43;3.23;;;;;;;;;;4994622;28;20165;-71
2023/05/24 08:24:59;;;;;;;5.87;3.20;;;;;;;;;;4993990;28;20189;-71
2023/05/24 08:27:29;;;;;;;7.00;3.67;;;;;;;;;;5011579;28;20192;-71
2023/05/24 08:29:56;;;;;;;4.97;3.00;;;;;;;;;;5011599;28;20299;-71
2023/05/24 08:32:22;;;;;;;6.60;3.40;;;;;;;;;;5011118;28;20275;-71
2023/05/24 08:34:49;;;;;;;4.57;3.10;;;;;;;;;;4994207;28;20197;-71
2023/05/24 08:37:19;;;;;;;4.13;3.20;;;;;;;;;;4994180;28;20287;-71
2023/05/24 08:39:46;;;;;;;6.57;2.83;;;;;;;;;;5011300;28;20601;-71
2023/05/24 08:42:13;;;;;;;4.20;3.07;;;;;;;;;;4993523;28;20727;-71
2023/05/24 08:45:00;;;;;;;7.13;3.10;;;;;;;;;;4994141;28;20257;-71
2023/05/24 08:47:27;;;;;;;6.40;3.40;;;;;;;;;;5010989;28;20601;-71
2023/05/24 08:49:54;;;;;;;3.53;2.70;;;;;;;;;;5011110;28;20215;-71
2023/05/24 08:52:21;;;;;;;4.30;2.80;;;;;;;;;;4994117;28;20192;-71
2023/05/24 08:54:48;;;;;;;4.37;3.10;;;;;;;;;;4993639;28;20229;-70
2023/05/24 08:57:15;;;;;;;4.10;3.07;;;;;;;;;;5011039;28;20655;-71
2023/05/24 08:59:42;;;;;;;9.63;3.37;;;;;;;;;;4994212;28;20199;-71
2023/05/24 09:02:10;;;;;;;5.63;2.90;;;;;;;;;;4993801;28;20181;-70
2023/05/24 09:04:38;;;;;;;4.67;3.10;;;;;;;;;;4993801;28;20211;-71
2023/05/24 09:07:05;;;;;;;5.00;2.90;;;;;;;;;;5010898;28;20186;-70
2023/05/24 09:09:31;;;;;;;4.57;2.63;;;;;;;;;;4993489;28;20216;-70
2023/05/24 09:11:59;;;;;;;4.57;3.07;;;;;;;;;;4993552;28;20194;-71
2023/05/24 09:14:25;;;;;;;3.07;2.70;;;;;;;;;;4993594;28;20185;-70
2023/05/24 09:16:52;;;;;;;6.60;3.27;;;;;;;;;;4979390;28;20229;-70
2023/05/24 09:19:19;;;;;;;3.97;2.67;;;;;;;;;;4973826;28;20225;-71
2023/05/24 09:21:47;;;;;;;4.57;2.60;;;;;;;;;;4991259;28;20198;-71
2023/05/24 09:24:13;;;;;;;3.70;2.90;;;;;;;;;;4974082;28;20560;-71
2023/05/24 09:26:40;;;;;;;5.50;2.63;;;;;;;;;;4957918;28;20205;-70
2023/05/24 09:29:08;;;;;;;5.53;3.10;;;;;;;;;;4990349;28;20215;-71
2023/05/24 09:31:36;;;;;;;4.57;2.73;;;;;;;;;;4990880;28;20248;-70
2023/05/24 09:34:03;;;;;;;4.40;2.70;;;;;;;;;;4973913;28;20228;-70
2023/05/24 09:36:31;;;;;;;5.10;3.10;;;;;;;;;;4990903;28;20217;-71
2023/05/24 09:39:05;;;;;;;3.37;3.00;;;;;;;;;;4973734;28;20181;-71
2023/05/24 09:41:34;;;;;;;4.33;2.83;;;;;;;;;;4991232;28;20675;-71
2023/05/24 09:44:02;;;;;;;5.63;3.67;;;;;;;;;;4990288;28;20189;-71
2023/05/24 09:46:29;;;;;;;3.77;2.77;;;;;;;;;;4973491;28;20652;-71
2023/05/24 09:48:57;;;;;;;5.80;3.03;;;;;;;;;;4973464;28;20267;-71
2023/05/24 09:51:25;;;;;;;5.37;3.07;;;;;;;;;;4973636;28;20185;-71
2023/05/24 09:53:55;;;;;;;3.53;2.80;;;;;;;;;;4973778;28;20201;-71
2023/05/24 09:56:22;;;;;;;5.80;2.97;;;;;;;;;;4973646;28;20181;-71
2023/05/24 09:58:49;;;;;;;5.73;3.10;;;;;;;;;;4973273;28;20704;-71
2023/05/24 10:01:17;;;;;;;4.70;3.17;;;;;;;;;;4973409;28;20235;-71
2023/05/24 10:03:53;;;;;;;4.50;3.30;;;;;;;;;;4972919;28;20189;-71
2023/05/24 10:06:20;;;;;;;5.97;3.57;;;;;;;;;;4973515;28;20564;-71
2023/05/24 10:08:53;;;;;;;5.47;3.50;;;;;;;;;;4972989;28;20210;-71
2023/05/24 10:11:20;;;;;;;5.60;3.40;;;;;;;;;;4990620;28;20716;-71
2023/05/24 10:13:47;;;;;;;7.57;3.20;;;;;;;;;;4972864;28;20200;-70
2023/05/24 10:16:14;;;;;;;5.43;3.10;;;;;;;;;;4981528;28;20184;-71
2023/05/24 10:18:41;;;;;;;4.80;3.07;;;;;;;;;;5009791;28;20587;-71
2023/05/24 10:21:08;;;;;;;6.67;3.50;;;;;;;;;;4984861;28;20192;-71
2023/05/24 10:23:35;;;;;;;5.43;3.27;;;;;;;;;;5010167;28;20192;-71
2023/05/24 10:26:05;;;;;;;7.07;3.13;;;;;;;;;;4992605;28;20188;-71
2023/05/24 10:28:45;;;;;;;6.20;3.20;;;;;;;;;;4992808;28;20204;-71
2023/05/24 10:31:30;;;;;;;6.00;3.40;;;;;;;;;;4992592;28;20607;-71
2023/05/24 10:33:59;;;;;;;5.87;3.30;;;;;;;;;;5009859;28;20204;-71
2023/05/24 10:36:33;;;;;;;6.53;3.97;;;;;;;;;;5010006;28;20186;-71
2023/05/24 10:39:00;;;;;;;6.17;3.50;;;;;;;;;;5009718;28;20195;-71
2023/05/24 10:41:27;;;;;;;5.90;3.60;;;;;;;;;;5009979;28;20606;-71
2023/05/24 10:43:54;;;;;;;6.00;3.43;;;;;;;;;;5009496;28;20188;-71
2023/05/24 10:46:36;;;;;;;7.13;3.67;;;;;;;;;;4994561;28;20287;-71
2023/05/24 10:49:06;;;;;;;5.13;3.37;;;;;;;;;;4992324;28;20698;-70
2023/05/24 10:51:37;;;;;;;5.77;3.57;;;;;;;;;;4991721;28;20221;-71
2023/05/24 10:54:15;;;;;;;4.70;3.50;;;;;;;;;;4992485;28;20425;-71
2023/05/24 10:56:45;;;;;;;6.27;3.87;;;;;;;;;;5011340;28;20271;-70
2023/05/24 10:59:29;;;;;;;6.63;3.83;;;;;;;;;;4979561;28;20536;-71
2023/05/24 11:01:57;;;;;;;4.67;3.40;;;;;;;;;;4995924;28;20287;-71
2023/05/24 11:04:25;;;;;;;4.23;3.53;;;;;;;;;;5013256;28;20251;-70
2023/05/24 11:07:02;;;;;;;5.07;3.53;;;;;;;;;;4979521;28;20647;-71
2023/05/24 11:09:29;;;;;;;4.93;3.50;;;;;;;;;;5013025;28;20302;-71
2023/05/24 11:11:58;;;;;;;3.57;3.27;;;;;;;;;;5013293;28;20275;-70
2023/05/24 11:14:28;;;;;;;5.87;3.70;;;;;;;;;;4995696;28;20196;-70
2023/05/24 11:16:56;;;;;;;4.83;3.50;;;;;;;;;;4998457;28;20225;-71
2023/05/24 11:19:23;;;;;;;3.93;3.37;;;;;;;;;;4976147;28;20201;-71
2023/05/24 11:21:52;;;;;;;6.53;3.60;;;;;;;;;;4959797;28;20667;-70
2023/05/24 11:24:19;;;;;;;6.80;3.47;;;;;;;;;;4993369;28;20193;-70
2023/05/24 11:26:46;;;;;;;7.43;4.10;;;;;;;;;;4993251;28;20552;-70
2023/05/24 11:29:16;;;;;;;5.60;3.70;;;;;;;;;;4993204;28;20224;-70
2023/05/24 11:31:49;;;;;;;4.93;3.20;;;;;;;;;;4993125;28;20504;-71
2023/05/24 11:34:17;;;;;;;7.00;3.33;;;;;;;;;;4993129;28;20199;-70
2023/05/24 11:36:45;;;;;;;6.47;3.43;;;;;;;;;;4993075;28;20714;-70
2023/05/24 11:39:12;;;;;;;4.50;3.50;;;;;;;;;;4993147;28;20201;-70
2023/05/24 11:41:39;;;;;;;5.10;3.40;;;;;;;;;;4975529;28;20760;-70
2023/05/24 11:44:09;;;;;;;3.70;3.37;;;;;;;;;;4968221;28;20196;-70
2023/05/24 11:46:37;;;;;;;4.40;3.67;;;;;;;;;;4975591;28;20194;-70
2023/05/24 11:49:05;;;;;;;6.10;3.63;;;;;;;;;;4975606;28;20267;-70
2023/05/24 11:51:33;;;;;;;4.20;3.57;;;;;;;;;;4992739;28;20189;-71
2023/05/24 11:54:00;;;;;;;5.13;3.53;;;;;;;;;;4975419;28;20565;-71
2023/05/24 11:56:28;;;;;;;3.80;3.50;;;;;;;;;;4992631;28;20676;-71
2023/05/24 11:59:09;;;;;;;4.50;3.80;;;;;;;;;;4992770;28;20189;-70
2023/05/24 12:01:36;;;;;;;6.93;3.73;;;;;;;;;;4975370;28;20283;-70
2023/05/24 12:04:10;;;;;;;4.27;3.57;;;;;;;;;;4992742;28;20196;-70
2023/05/24 12:06:38;;;;;;;5.00;3.93;;;;;;;;;;4992148;28;20240;-70
2023/05/24 12:09:07;;;;;;;4.30;3.73;;;;;;;;;;4975218;28;20266;-71
2023/05/24 12:11:36;;;;;;;4.83;3.60;;;;;;;;;;4975399;28;20228;-71
2023/05/24 12:14:04;;;;;;;6.47;3.40;;;;;;;;;;4992401;28;20236;-71
2023/05/24 12:16:32;;;;;;;4.80;3.27;;;;;;;;;;5003564;28;20219;-71
2023/05/24 12:19:00;;;;;;;4.97;3.30;;;;;;;;;;5012122;28;20267;-70
2023/05/24 12:21:39;;;;;;;7.13;4.03;;;;;;;;;;4996012;28;20220;-71
2023/05/24 12:24:10;;;;;;;8.87;3.80;;;;;;;;;;4994343;28;20205;-71
2023/05/24 12:26:40;;;;;;;9.60;3.80;;;;;;;;;;5011790;28;20196;-71
2023/05/24 12:29:06;;;;;;;6.93;3.70;;;;;;;;;;5011544;28;20207;-71
2023/05/24 12:31:33;;;;;;;5.10;3.70;;;;;;;;;;4994227;28;20188;-71
2023/05/24 12:34:00;;;;;;;5.20;3.73;;;;;;;;;;4994599;28;20196;-71
2023/05/24 12:36:27;;;;;;;6.97;3.77;;;;;;;;;;4994017;28;20283;-71
2023/05/24 12:38:55;;;;;;;5.70;3.77;;;;;;;;;;4994474;28;20192;-71
2023/05/24 12:41:22;;;;;;;5.23;3.97;;;;;;;;;;5011458;28;20266;-71
2023/05/24 12:43:50;;;;;;;4.93;3.53;;;;;;;;;;5011317;28;20202;-71
2023/05/24 12:46:16;;;;;;;4.97;3.53;;;;;;;;;;4994190;28;20192;-71
2023/05/24 12:48:43;;;;;;;4.93;3.30;;;;;;;;;;5011135;28;20196;-71
2023/05/24 12:51:10;;;;;;;8.83;3.97;;;;;;;;;;4977292;28;20244;-71
2023/05/24 12:53:36;;;;;;;6.73;3.97;;;;;;;;;;5011399;28;20196;-71
2023/05/24 12:56:03;;;;;;;4.70;3.73;;;;;;;;;;4993743;28;20200;-71
2023/05/24 12:58:31;;;;;;;7.07;3.70;;;;;;;;;;4993810;28;20188;-70
2023/05/24 13:00:58;;;;;;;6.83;3.70;;;;;;;;;;4993775;28;20189;-70
2023/05/24 13:03:24;;;;;;;4.83;3.90;;;;;;;;;;4993557;28;20270;-71
2023/05/24 13:05:51;;;;;;;4.60;3.37;;;;;;;;;;5011047;28;20187;-71
2023/05/24 13:08:18;;;;;;;9.37;4.17;;;;;;;;;;5010898;28;20852;-71
2023/05/24 13:10:45;;;;;;;6.07;3.97;;;;;;;;;;4993170;28;20220;-70
2023/05/24 13:13:18;;;;;;;4.03;3.67;;;;;;;;;;4994088;28;20544;-70
2023/05/24 13:15:44;;;;;;;5.97;4.20;;;;;;;;;;5005555;28;20189;-71
2023/05/24 13:18:11;;;;;;;5.50;4.10;;;;;;;;;;4990824;28;20236;-71
2023/05/24 13:20:39;;;;;;;7.27;4.03;;;;;;;;;;4990689;28;20207;-71
2023/05/24 13:23:06;;;;;;;5.63;3.93;;;;;;;;;;4973771;28;20195;-71
2023/05/24 13:25:33;;;;;;;5.30;3.97;;;;;;;;;;4991223;28;20182;-71
2023/05/24 13:28:00;;;;;;;8.23;4.27;;;;;;;;;;4991016;28;20253;-71
2023/05/24 13:30:27;;;;;;;6.53;4.33;;;;;;;;;;4990568;28;20654;-71
2023/05/24 13:32:54;;;;;;;5.37;4.23;;;;;;;;;;4973736;28;20217;-71
2023/05/24 13:35:21;;;;;;;4.77;3.97;;;;;;;;;;4973990;28;20734;-71
2023/05/24 13:37:48;;;;;;;5.90;4.33;;;;;;;;;;4973142;28;20204;-71
2023/05/24 13:40:15;;;;;;;4.53;4.10;;;;;;;;;;4973714;28;20264;-71
2023/05/24 13:42:42;;;;;;;5.40;4.03;;;;;;;;;;4990619;28;20192;-71
2023/05/24 13:45:10;;;;;;;7.83;4.30;;;;;;;;;;4973357;28;20236;-71
2023/05/24 13:47:37;;;;;;;6.13;4.00;;;;;;;;;;4990703;28;20623;-71
2023/05/24 13:50:07;;;;;;;7.40;4.00;;;;;;;;;;4990488;28;20244;-71
2023/05/24 13:52:33;;;;;;;4.77;4.00;;;;;;;;;;4973068;28;20718;-71
2023/05/24 13:55:03;;;;;;;4.37;3.87;;;;;;;;;;4991162;28;20192;-71
2023/05/24 13:57:29;;;;;;;6.80;4.07;;;;;;;;;;4990430;28;20192;-71
2023/05/24 14:00:16;;;;;;;5.57;3.97;;;;;;;;;;4990640;28;20246;-71
2023/05/24 14:02:43;;;;;;;5.97;4.17;;;;;;;;;;4990643;28;20188;-71
2023/05/24 14:05:10;;;;;;;4.63;4.10;;;;;;;;;;4990390;28;20271;-71
2023/05/24 14:07:53;;;;;;;10.10;4.17;;;;;;;;;;4972980;28;20608;-71
2023/05/24 14:10:20;;;;;;;7.00;4.00;;;;;;;;;;4990248;28;20200;-71
2023/05/24 14:12:47;;;;;;;4.50;3.83;;;;;;;;;;4990157;28;20656;-71
2023/05/24 14:15:36;;;;;;;5.43;4.07;;;;;;;;;;4993793;28;20219;-71
2023/05/24 14:18:06;;;;;;;5.00;3.53;;;;;;;;;;4991950;28;20326;-71
2023/05/24 14:20:36;;;;;;;4.97;4.43;;;;;;;;;;5010059;28;20703;-71
2023/05/24 14:23:05;;;;;;;7.10;4.20;;;;;;;;;;5009924;28;20200;-71
2023/05/24 14:25:33;;;;;;;4.53;4.10;;;;;;;;;;5009845;28;20196;-71
2023/05/24 14:28:00;;;;;;;5.80;3.90;;;;;;;;;;5009956;28;20271;-71
2023/05/24 14:30:27;;;;;;;7.63;3.80;;;;;;;;;;4993670;28;20208;-71
2023/05/24 14:32:55;;;;;;;4.70;3.93;;;;;;;;;;4996738;28;20192;-71
2023/05/24 14:35:24;;;;;;;5.30;4.37;;;;;;;;;;5013760;28;20195;-71
2023/05/24 14:37:52;;;;;;;6.20;4.30;;;;;;;;;;5013696;28;20215;-71
2023/05/24 14:40:22;;;;;;;6.97;4.63;;;;;;;;;;4996611;28;20211;-71
2023/05/24 14:42:50;;;;;;;4.30;3.90;;;;;;;;;;5013269;28;20543;-71
2023/05/24 14:45:17;;;;;;;6.13;4.37;;;;;;;;;;4996173;28;20768;-71
2023/05/24 14:47:44;;;;;;;6.77;4.00;;;;;;;;;;5013585;28;20206;-71
2023/05/24 14:50:11;;;;;;;7.93;3.83;;;;;;;;;;5013370;28;20238;-71
2023/05/24 14:52:37;;;;;;;6.03;3.70;;;;;;;;;;5013507;28;20246;-71
2023/05/24 14:55:06;;;;;;;4.97;3.73;;;;;;;;;;5013470;28;20199;-71
2023/05/24 14:57:32;;;;;;;7.73;4.10;;;;;;;;;;4995889;28;20185;-71
2023/05/24 14:59:59;;;;;;;7.10;3.90;;;;;;;;;;4980033;28;20263;-71
2023/05/24 15:02:26;;;;;;;8.33;4.30;;;;;;;;;;5013394;28;20271;-71
2023/05/24 15:04:53;;;;;;;5.80;3.60;;;;;;;;;;5013281;28;20188;-71
2023/05/24 15:07:21;;;;;;;7.00;3.80;;;;;;;;;;5012968;28;20472;-71
2023/05/24 15:09:48;;;;;;;4.57;3.90;;;;;;;;;;5012928;28;20212;-71
2023/05/24 15:12:19;;;;;;;5.47;3.57;;;;;;;;;;5013004;28;20188;-71
2023/05/24 15:14:46;;;;;;;3.67;3.30;;;;;;;;;;5013547;28;20196;-71
2023/05/24 15:17:13;;;;;;;5.47;4.00;;;;;;;;;;4995970;28;20224;-71
2023/05/24 15:19:40;;;;;;;7.37;4.03;;;;;;;;;;4976055;28;20235;-71